Airfield :
LOGIN :

Register | Disclaimer

   EN    FR    IT 

 










Legend :    VFR   Marginal VFR   IFR   Intensive IFR   Very Intensive IFR
Visi :
Ceiling :
>= 8 km
>= 3000ft
5 to 8 km
1000 to 3000 ft
1500m to 5 km
500 to 1000 ft
800 to 1500m
200 to 500 ft
< 800m
< 200 ft
Symbols :   Thunderstorms  Fog  Heavy snow  Heavy precipitations  Wind > 20 kt
SIGMETs :     Misc.  Thunderstorms  Icing  Turbulence  Mountain Waves  Volcanic Ashes






- Airport Elevation : 607 ft
- IATA code : BCM


LRBC - Bacău

CURRENT METAR :
  • 201130Z 15011KT 7000 FEW011 BKN014 11/09 Q1024 R16/210295

EXPIRED METARs :
  • 201100Z 16012KT 6000 SCT012 OVC015 11/10 Q1024 R16/210295
  • 201030Z 15010KT 6000 SCT011 OVC015 11/10 Q1024 R16/210295
  • 201000Z 15009KT 4000 -DZ BR BKN009 OVC011 10/10 Q1024 R16/210295
  • 200930Z 15010KT 4000 -RA BR FEW004 BKN010 11/10 Q1025 R16/210295
  • 200900Z 15011KT 2000 -RA BR SCT002 BKN008 11/10 Q1025 REDZ R16/210295

TAF TAF LRBC
Valid from the 20 at 12:00 until the 20 at 21:00 UTC


201100Z 2012/2021 16010KT 9999 SCT010 OVC015
BECMG 2014/2016 5000 -DZ BR BKN005 OVC010



MET'MAP, your aeronautical weather chart ! - Copyright ORBIFLY December 2007 - Disclaimer

ORBIFLY MET'MAP TEAM :

Programming & Development : Alexandra Zaïnal
Concept & Development : Baudouin d'Aumeries
Co-Development & Prog : Marc-Olivier Méhu
Technical & hardware support : Manuel Goepfert

Contact : metmap@orbifly.com




SOURCES & CREDITS :

   NOAA